createdAt,value
2022-12-11T00:01:19.372Z,82.70
2022-12-11T00:03:47.506Z,82.80
2022-12-11T00:06:18.440Z,82.80
2022-12-11T00:08:47.300Z,82.90
2022-12-11T00:11:16.545Z,82.80
2022-12-11T00:13:44.557Z,82.80
2022-12-11T00:16:11.817Z,82.70
2022-12-11T00:18:39.229Z,82.80
2022-12-11T00:21:08.454Z,82.70
2022-12-11T00:23:36.220Z,82.70
2022-12-11T00:26:09.788Z,82.70
2022-12-11T00:28:37.304Z,82.60
2022-12-11T00:31:08.598Z,82.70
2022-12-11T00:33:36.271Z,82.90
2022-12-11T00:36:04.502Z,82.90
2022-12-11T00:38:31.419Z,82.90
2022-12-11T00:40:59.927Z,83.00
2022-12-11T00:43:27.444Z,83.00
2022-12-11T00:45:54.341Z,82.80
2022-12-11T00:48:21.331Z,82.80
2022-12-11T00:50:48.532Z,82.80
2022-12-11T00:53:15.477Z,82.70
2022-12-11T00:55:43.501Z,82.70
2022-12-11T00:58:11.971Z,82.80
2022-12-11T01:00:39.907Z,82.80
2022-12-11T01:03:07.555Z,82.90
2022-12-11T01:05:35.405Z,82.80
2022-12-11T01:08:02.774Z,82.90
2022-12-11T01:10:30.370Z,82.90
2022-12-11T01:13:03.927Z,82.80
2022-12-11T01:15:41.637Z,82.60
2022-12-11T01:18:10.306Z,82.60
2022-12-11T01:20:40.061Z,82.60
2022-12-11T01:23:06.980Z,82.60
2022-12-11T01:25:38.159Z,82.60
2022-12-11T01:28:07.277Z,82.60
2022-12-11T01:30:34.705Z,82.70
2022-12-11T01:33:02.611Z,82.80
2022-12-11T01:35:29.365Z,82.70
2022-12-11T01:37:59.896Z,82.70
2022-12-11T01:40:26.779Z,82.60
2022-12-11T01:42:53.641Z,82.50
2022-12-11T01:45:44.771Z,82.50
2022-12-11T01:48:21.350Z,82.50
2022-12-11T01:51:01.229Z,82.40
2022-12-11T01:53:34.320Z,82.40
2022-12-11T01:56:02.523Z,82.40
2022-12-11T01:58:47.836Z,82.50
2022-12-11T02:01:22.927Z,82.60
2022-12-11T02:03:50.828Z,82.50
2022-12-11T02:06:40.790Z,82.40
2022-12-11T02:09:16.151Z,82.20
2022-12-11T02:12:10.098Z,82.20
2022-12-11T02:14:48.602Z,82.10
2022-12-11T02:17:54.265Z,82.00
2022-12-11T02:20:30.395Z,81.90
2022-12-11T02:23:20.213Z,81.80
2022-12-11T02:26:14.196Z,82.00
2022-12-11T02:29:01.804Z,82.10
2022-12-11T02:32:13.420Z,82.00
2022-12-11T02:34:43.831Z,82.00
2022-12-11T02:37:17.712Z,82.10
2022-12-11T02:39:46.371Z,82.20
2022-12-11T02:42:16.515Z,82.10
2022-12-11T02:44:45.210Z,82.20
2022-12-11T02:47:15.267Z,82.10
2022-12-11T02:49:45.532Z,81.90
2022-12-11T02:52:16.753Z,82.00
2022-12-11T02:54:45.057Z,81.90
2022-12-11T02:57:16.752Z,81.80
2022-12-11T02:59:46.349Z,81.80
2022-12-11T03:02:14.578Z,81.60
2022-12-11T03:04:43.080Z,81.50
2022-12-11T03:07:17.723Z,81.60
2022-12-11T03:09:48.365Z,81.60
2022-12-11T03:12:20.244Z,81.40
2022-12-11T03:14:48.913Z,81.50
2022-12-11T03:17:20.008Z,81.20
2022-12-11T03:19:55.413Z,81.20
2022-12-11T03:22:36.528Z,81.10
2022-12-11T03:25:12.822Z,81.10
2022-12-11T03:27:50.619Z,81.10
2022-12-11T03:30:20.373Z,80.90
2022-12-11T03:33:01.373Z,81.10
2022-12-11T03:35:44.669Z,81.00
2022-12-11T03:38:24.301Z,81.10
2022-12-11T03:40:54.771Z,80.80
2022-12-11T03:43:23.017Z,80.80
2022-12-11T03:45:52.385Z,80.70
2022-12-11T03:48:20.915Z,80.80
2022-12-11T03:50:48.811Z,80.50
2022-12-11T03:53:16.781Z,80.50
2022-12-11T03:55:44.909Z,80.30
2022-12-11T03:58:11.798Z,80.40
2022-12-11T04:00:38.824Z,80.30
2022-12-11T04:03:15.784Z,80.20
2022-12-11T04:05:45.445Z,80.20
2022-12-11T04:08:12.896Z,80.30
2022-12-11T04:10:40.929Z,80.20
2022-12-11T04:13:08.982Z,80.10
2022-12-11T04:15:37.155Z,80.00
2022-12-11T04:18:23.044Z,80.10
2022-12-11T04:21:11.710Z,80.00
2022-12-11T04:24:14.389Z,79.90
2022-12-11T04:26:42.875Z,79.80
2022-12-11T04:29:09.803Z,79.80
2022-12-11T04:31:36.609Z,79.80
2022-12-11T04:34:03.762Z,79.80
2022-12-11T04:36:31.214Z,79.80
2022-12-11T04:38:58.439Z,79.60
2022-12-11T04:41:25.257Z,79.50
2022-12-11T04:43:53.292Z,79.40
2022-12-11T04:46:22.933Z,79.40
2022-12-11T04:48:56.735Z,79.60
2022-12-11T04:51:24.784Z,79.60
2022-12-11T04:53:51.826Z,79.40
2022-12-11T04:56:18.851Z,79.40
2022-12-11T04:58:46.376Z,79.40
2022-12-11T05:01:16.043Z,79.50
2022-12-11T05:03:43.259Z,79.30
2022-12-11T05:06:11.312Z,79.40
2022-12-11T05:08:40.785Z,79.60
2022-12-11T05:11:10.527Z,79.60
2022-12-11T05:13:38.224Z,79.40
2022-12-11T05:16:06.611Z,79.30
2022-12-11T05:18:33.717Z,79.30
2022-12-11T05:21:10.002Z,79.30
2022-12-11T05:23:36.947Z,79.40
2022-12-11T05:26:06.635Z,79.10
2022-12-11T05:28:36.882Z,79.00
2022-12-11T05:31:07.293Z,79.00
2022-12-11T05:33:34.600Z,78.90
2022-12-11T05:36:01.771Z,79.00
2022-12-11T05:38:28.612Z,79.00
2022-12-11T05:41:00.526Z,79.10
2022-12-11T05:43:29.461Z,79.00
2022-12-11T05:45:57.331Z,79.10
2022-12-11T05:48:24.143Z,79.10
2022-12-11T05:51:01.181Z,79.10
2022-12-11T05:53:28.332Z,79.00
2022-12-11T05:55:55.291Z,78.90
2022-12-11T05:58:22.093Z,78.70
2022-12-11T06:00:48.816Z,78.70
2022-12-11T06:03:15.727Z,78.70
2022-12-11T06:05:43.169Z,78.60
2022-12-11T06:08:10.501Z,78.60
2022-12-11T06:10:37.402Z,78.70
2022-12-11T06:13:04.288Z,78.50
2022-12-11T06:15:32.217Z,78.50
2022-12-11T06:17:58.992Z,78.40
2022-12-11T06:20:25.724Z,78.20
2022-12-11T06:22:52.563Z,78.10
2022-12-11T06:25:19.319Z,78.10
2022-12-11T06:27:46.142Z,78.00
2022-12-11T06:30:13.407Z,78.00
2022-12-11T06:32:40.217Z,77.90
2022-12-11T06:35:07.368Z,78.00
2022-12-11T06:37:35.959Z,78.20
2022-12-11T06:40:04.416Z,78.10
2022-12-11T06:42:31.696Z,78.10
2022-12-11T06:44:59.791Z,77.90
2022-12-11T06:47:27.500Z,77.60
2022-12-11T06:49:54.525Z,77.70
2022-12-11T06:52:25.449Z,77.90
2022-12-11T06:54:52.298Z,78.00
2022-12-11T06:57:19.679Z,77.90
2022-12-11T06:59:46.535Z,78.00
2022-12-11T07:02:14.874Z,78.00
2022-12-11T07:04:42.048Z,77.90
2022-12-11T07:07:09.986Z,77.70
2022-12-11T07:09:39.525Z,77.40
2022-12-11T07:12:07.340Z,77.30
2022-12-11T07:14:34.523Z,77.30
2022-12-11T07:17:01.360Z,77.30
2022-12-11T07:19:28.195Z,77.40
2022-12-11T07:21:55.127Z,77.10
2022-12-11T07:24:22.067Z,77.00
2022-12-11T07:26:49.007Z,76.80
2022-12-11T07:29:15.846Z,76.70
2022-12-11T07:31:42.716Z,76.90
2022-12-11T07:34:12.829Z,76.90
2022-12-11T07:36:39.860Z,77.00
2022-12-11T07:39:07.758Z,76.90
2022-12-11T07:41:34.658Z,76.50
2022-12-11T07:44:02.747Z,76.40
2022-12-11T07:46:31.853Z,76.30
2022-12-11T07:49:00.816Z,76.50
2022-12-11T07:51:33.601Z,76.50
2022-12-11T07:54:07.003Z,76.30
2022-12-11T07:56:34.589Z,76.40
2022-12-11T07:59:02.972Z,76.30
2022-12-11T08:01:32.333Z,76.50
2022-12-11T08:03:59.313Z,76.20
2022-12-11T08:06:28.598Z,76.00
2022-12-11T08:08:56.709Z,75.70
2022-12-11T08:11:24.227Z,75.80
2022-12-11T08:13:51.256Z,75.90
2022-12-11T08:16:19.042Z,76.00
2022-12-11T08:18:46.977Z,75.90
2022-12-11T08:21:18.005Z,76.10
2022-12-11T08:23:45.278Z,75.80
2022-12-11T08:26:15.814Z,76.20
2022-12-11T08:28:42.707Z,76.40
2022-12-11T08:31:11.292Z,76.40
2022-12-11T08:33:38.987Z,76.50
2022-12-11T08:36:08.008Z,76.50
2022-12-11T08:38:35.279Z,76.50
2022-12-11T08:41:16.722Z,76.50
2022-12-11T08:43:44.054Z,76.60
2022-12-11T08:46:12.423Z,76.50
2022-12-11T08:48:41.520Z,76.60
2022-12-11T08:51:12.728Z,76.50
2022-12-11T08:53:39.830Z,75.90
2022-12-11T08:56:12.753Z,75.70
2022-12-11T08:58:39.893Z,75.70
2022-12-11T09:01:09.130Z,75.50
2022-12-11T09:03:37.016Z,75.70
2022-12-11T09:06:08.448Z,75.70
2022-12-11T09:08:36.125Z,75.60
2022-12-11T09:11:05.143Z,75.80
2022-12-11T09:13:32.195Z,76.10
2022-12-11T09:15:59.673Z,76.00
2022-12-11T09:18:27.312Z,76.10
2022-12-11T09:21:13.429Z,76.10
2022-12-11T09:23:41.337Z,75.90
2022-12-11T09:26:11.259Z,75.70
2022-12-11T09:28:42.874Z,75.70
2022-12-11T09:31:18.751Z,75.90
2022-12-11T09:33:46.221Z,75.70
2022-12-11T09:36:13.597Z,75.60
2022-12-11T09:38:40.737Z,76.00
2022-12-11T09:41:22.568Z,76.10
2022-12-11T09:43:59.233Z,76.00
2022-12-11T09:46:33.603Z,75.80
2022-12-11T09:49:03.493Z,75.40
2022-12-11T09:51:37.384Z,75.80
2022-12-11T09:54:05.056Z,75.70
2022-12-11T09:56:42.469Z,75.50
2022-12-11T09:59:15.322Z,75.30
2022-12-11T10:01:42.110Z,75.50
2022-12-11T10:04:38.240Z,75.60
2022-12-11T10:07:15.339Z,75.40
2022-12-11T10:09:51.515Z,75.80
2022-12-11T10:12:29.914Z,76.10
2022-12-11T10:15:19.621Z,76.30
2022-12-11T10:17:47.204Z,75.90
2022-12-11T10:20:29.202Z,75.90
2022-12-11T10:22:58.164Z,75.70
2022-12-11T10:25:37.501Z,75.70
2022-12-11T10:28:30.744Z,75.70
2022-12-11T10:31:04.313Z,75.60
2022-12-11T10:33:56.711Z,75.80
2022-12-11T10:36:35.644Z,76.00
2022-12-11T10:39:03.565Z,76.10
2022-12-11T10:41:43.266Z,76.20
2022-12-11T10:44:26.667Z,76.20
2022-12-11T10:47:06.152Z,76.20
2022-12-11T10:49:35.946Z,76.10
2022-12-11T10:52:19.936Z,75.80
2022-12-11T10:54:53.407Z,75.70
2022-12-11T10:57:32.040Z,75.60
2022-12-11T11:00:00.096Z,75.40
2022-12-11T11:02:28.727Z,75.60
2022-12-11T11:04:57.868Z,75.40
2022-12-11T11:07:27.773Z,75.50
2022-12-11T11:10:16.606Z,75.60
2022-12-11T11:12:48.954Z,75.50
2022-12-11T11:15:18.198Z,75.90
2022-12-11T11:17:54.913Z,75.90
2022-12-11T11:20:29.200Z,76.00
2022-12-11T11:23:04.918Z,75.90
2022-12-11T11:25:33.423Z,75.90
2022-12-11T11:28:05.938Z,75.90
2022-12-11T11:30:39.402Z,75.80
2022-12-11T11:33:19.460Z,75.40
2022-12-11T11:36:29.003Z,75.40
2022-12-11T11:39:04.330Z,75.30
2022-12-11T11:41:51.946Z,75.30
2022-12-11T11:44:30.753Z,75.70
2022-12-11T11:47:01.358Z,75.70
2022-12-11T11:50:00.089Z,75.30
2022-12-11T11:52:48.244Z,75.40
2022-12-11T11:55:39.849Z,75.40
2022-12-11T11:58:19.341Z,75.20
2022-12-11T12:00:46.879Z,75.20
2022-12-11T12:03:17.240Z,75.50
2022-12-11T12:05:53.940Z,75.40
2022-12-11T12:09:05.344Z,75.60
2022-12-11T12:11:41.726Z,75.30
2022-12-11T12:14:51.792Z,74.70
2022-12-11T12:17:40.600Z,74.60
2022-12-11T12:20:32.551Z,74.70
2022-12-11T12:23:11.399Z,75.10
2022-12-11T12:25:41.132Z,75.00
2022-12-11T12:28:10.749Z,75.00
2022-12-11T12:30:49.817Z,75.00
2022-12-11T12:33:46.460Z,75.10
2022-12-11T12:36:42.539Z,75.30
2022-12-11T12:39:21.243Z,75.00
2022-12-11T12:41:53.873Z,75.20
2022-12-11T12:44:23.861Z,75.00
2022-12-11T12:47:02.367Z,74.80
2022-12-11T12:49:41.366Z,75.10
2022-12-11T12:52:18.359Z,75.20
2022-12-11T12:55:08.978Z,75.20
2022-12-11T12:57:38.191Z,74.90
2022-12-11T13:00:13.263Z,75.00
2022-12-11T13:02:50.904Z,75.20
2022-12-11T13:05:35.888Z,75.10
2022-12-11T13:08:05.650Z,75.00
2022-12-11T13:10:36.009Z,75.00
2022-12-11T13:13:05.087Z,75.00
2022-12-11T13:15:40.662Z,74.70
2022-12-11T13:18:32.539Z,74.60
2022-12-11T13:20:59.542Z,74.70
2022-12-11T13:23:29.506Z,74.30
2022-12-11T13:25:59.606Z,74.30
2022-12-11T13:28:26.385Z,74.30
2022-12-11T13:31:07.624Z,74.30
2022-12-11T13:33:41.510Z,74.30
2022-12-11T13:36:17.832Z,74.30
2022-12-11T13:39:36.794Z,74.30
2022-12-11T13:42:07.637Z,74.70
2022-12-11T13:44:44.088Z,74.60
2022-12-11T13:47:15.429Z,74.30
2022-12-11T13:49:44.853Z,74.40
2022-12-11T13:52:20.711Z,74.10
2022-12-11T13:54:53.487Z,74.00
2022-12-11T13:57:23.349Z,74.40
2022-12-11T13:59:56.504Z,74.50
2022-12-11T14:02:42.666Z,74.40
2022-12-11T14:05:12.780Z,74.40
2022-12-11T14:07:46.742Z,74.30
2022-12-11T14:10:16.357Z,74.30
2022-12-11T14:12:56.880Z,74.30
2022-12-11T14:15:24.129Z,74.30
2022-12-11T14:17:52.081Z,74.50
2022-12-11T14:20:25.547Z,74.50
2022-12-11T14:22:52.395Z,74.40
2022-12-11T14:25:25.097Z,74.60
2022-12-11T14:27:55.285Z,74.70
2022-12-11T14:30:29.036Z,74.40
2022-12-11T14:32:59.892Z,74.40
2022-12-11T14:35:38.854Z,74.60
2022-12-11T14:38:16.607Z,74.60
2022-12-11T14:40:46.965Z,74.50
2022-12-11T14:43:33.193Z,74.40
2022-12-11T14:46:08.460Z,74.40
2022-12-11T14:48:44.828Z,74.40
2022-12-11T14:51:16.011Z,74.60
2022-12-11T14:53:47.608Z,74.70
2022-12-11T14:56:24.391Z,74.60
2022-12-11T14:59:06.488Z,74.30
2022-12-11T15:01:35.325Z,74.50
2022-12-11T15:04:07.153Z,74.30
2022-12-11T15:06:42.577Z,74.40
2022-12-11T15:09:36.256Z,74.50
2022-12-11T15:12:18.619Z,74.40
2022-12-11T15:15:00.690Z,74.40
2022-12-11T15:17:30.903Z,74.20
2022-12-11T15:20:11.437Z,74.10
2022-12-11T15:22:43.266Z,74.00
2022-12-11T15:25:19.794Z,73.80
2022-12-11T15:27:51.697Z,73.50
2022-12-11T15:30:20.438Z,73.10
2022-12-11T15:32:47.459Z,73.10
2022-12-11T15:35:26.993Z,73.10
2022-12-11T15:37:55.932Z,73.10
2022-12-11T15:40:23.463Z,73.10
2022-12-11T15:42:50.899Z,73.10
2022-12-11T15:45:30.985Z,73.20
2022-12-11T15:47:59.418Z,73.30
2022-12-11T15:50:29.187Z,72.80
2022-12-11T15:52:56.935Z,72.40
2022-12-11T15:55:27.234Z,72.50
2022-12-11T15:57:57.346Z,72.10
2022-12-11T16:00:24.847Z,71.80
2022-12-11T16:02:52.198Z,71.70
2022-12-11T16:05:20.217Z,71.80
2022-12-11T16:07:47.753Z,71.90
2022-12-11T16:10:17.597Z,71.70
2022-12-11T16:12:45.446Z,71.50
2022-12-11T16:15:21.508Z,71.70
2022-12-11T16:17:59.495Z,71.60
2022-12-11T16:20:26.451Z,71.70
2022-12-11T16:22:53.229Z,71.70
2022-12-11T16:25:19.975Z,71.80
2022-12-11T16:27:47.038Z,72.00
2022-12-11T16:30:14.364Z,72.10
2022-12-11T16:32:41.418Z,72.20
2022-12-11T16:35:08.312Z,72.10
2022-12-11T16:37:35.372Z,72.00
2022-12-11T16:40:02.367Z,72.20
2022-12-11T16:42:30.540Z,72.40
2022-12-11T16:45:09.315Z,72.10
2022-12-11T16:47:40.932Z,72.20
2022-12-11T16:50:10.992Z,72.40
2022-12-11T16:52:38.118Z,72.40
2022-12-11T16:55:05.468Z,72.20
2022-12-11T16:57:32.507Z,72.00
2022-12-11T16:59:59.304Z,72.20
2022-12-11T17:02:26.230Z,72.10
2022-12-11T17:04:54.090Z,72.10
2022-12-11T17:07:21.063Z,72.10
2022-12-11T17:09:47.879Z,72.10
2022-12-11T17:12:14.817Z,72.20
2022-12-11T17:14:41.584Z,71.80
2022-12-11T17:17:09.376Z,71.80
2022-12-11T17:19:36.492Z,72.00
2022-12-11T17:22:04.499Z,72.00
2022-12-11T17:24:31.445Z,71.80
2022-12-11T17:26:59.645Z,71.70
2022-12-11T17:29:26.490Z,71.70
2022-12-11T17:31:53.378Z,71.80
2022-12-11T17:34:20.224Z,71.60
2022-12-11T17:36:47.313Z,71.70
2022-12-11T17:39:14.104Z,71.50
2022-12-11T17:41:41.000Z,71.50
2022-12-11T17:44:07.863Z,71.70
2022-12-11T17:46:34.878Z,71.60
2022-12-11T17:49:03.837Z,71.50
2022-12-11T17:51:30.699Z,71.30
2022-12-11T17:53:57.784Z,71.10
2022-12-11T17:56:25.289Z,71.00
2022-12-11T17:58:52.156Z,71.30
2022-12-11T18:01:19.675Z,71.00
2022-12-11T18:03:46.990Z,71.10
2022-12-11T18:06:15.689Z,71.00
2022-12-11T18:08:44.372Z,70.90
2022-12-11T18:11:19.509Z,71.00
2022-12-11T18:13:51.450Z,70.90
2022-12-11T18:16:24.972Z,70.90
2022-12-11T18:18:52.481Z,70.90
2022-12-11T18:21:22.588Z,70.70
2022-12-11T18:23:50.454Z,70.60
2022-12-11T18:26:19.404Z,70.40
2022-12-11T18:28:47.407Z,70.40
2022-12-11T18:31:14.806Z,70.30
2022-12-11T18:33:43.259Z,70.50
2022-12-11T18:36:11.500Z,70.60
2022-12-11T18:38:38.602Z,70.20
2022-12-11T18:41:07.288Z,70.40
2022-12-11T18:43:34.786Z,70.50
2022-12-11T18:46:09.103Z,70.30
2022-12-11T18:48:36.141Z,70.40
2022-12-11T18:51:08.431Z,70.50
2022-12-11T18:53:36.294Z,70.40
2022-12-11T18:56:13.776Z,70.00
2022-12-11T18:58:41.294Z,69.60
2022-12-11T19:01:20.928Z,68.80
2022-12-11T19:03:48.631Z,69.20
2022-12-11T19:06:21.907Z,69.50
2022-12-11T19:08:48.926Z,69.80
2022-12-11T19:11:22.482Z,69.90
2022-12-11T19:13:49.830Z,70.00
2022-12-11T19:16:29.887Z,70.00
2022-12-11T19:19:02.988Z,69.80
2022-12-11T19:21:30.710Z,69.60
2022-12-11T19:23:57.719Z,69.70
2022-12-11T19:26:24.746Z,69.20
2022-12-11T19:28:52.782Z,68.70
2022-12-11T19:31:23.397Z,69.00
2022-12-11T19:33:50.408Z,69.00
2022-12-11T19:36:20.880Z,68.70
2022-12-11T19:38:48.560Z,68.90
2022-12-11T19:41:23.635Z,69.00
2022-12-11T19:43:51.249Z,69.10
2022-12-11T19:46:18.270Z,69.20
2022-12-11T19:48:47.743Z,69.40
2022-12-11T19:51:18.698Z,69.40
2022-12-11T19:53:47.848Z,69.00
2022-12-11T19:56:15.570Z,69.10
2022-12-11T19:58:42.977Z,69.10
2022-12-11T20:01:10.300Z,69.00
2022-12-11T20:03:37.987Z,69.00
2022-12-11T20:06:08.014Z,68.70
2022-12-11T20:08:44.906Z,69.00
2022-12-11T20:11:17.816Z,69.00
2022-12-11T20:13:46.693Z,68.80
2022-12-11T20:16:14.409Z,68.80
2022-12-11T20:18:41.690Z,69.00
2022-12-11T20:21:14.888Z,69.30
2022-12-11T20:23:42.612Z,69.30
2022-12-11T20:26:16.304Z,69.30
2022-12-11T20:28:44.860Z,69.60
2022-12-11T20:31:19.701Z,69.60
2022-12-11T20:33:49.432Z,69.60
2022-12-11T20:36:18.098Z,69.60
2022-12-11T20:38:45.245Z,69.70
2022-12-11T20:41:13.845Z,69.80
2022-12-11T20:43:40.987Z,69.90
2022-12-11T20:46:09.777Z,70.00
2022-12-11T20:48:38.937Z,70.00
2022-12-11T20:51:07.825Z,70.00
2022-12-11T20:53:35.856Z,70.00
2022-12-11T20:56:08.899Z,70.10
2022-12-11T20:58:36.111Z,70.10
2022-12-11T21:01:02.953Z,70.00
2022-12-11T21:03:33.159Z,70.10
2022-12-11T21:06:02.230Z,70.10
2022-12-11T21:08:29.170Z,70.10
2022-12-11T21:10:56.189Z,70.00
2022-12-11T21:13:23.472Z,70.10
2022-12-11T21:15:52.613Z,70.10
2022-12-11T21:18:20.944Z,70.10
2022-12-11T21:20:47.758Z,70.20
2022-12-11T21:23:14.556Z,70.30
2022-12-11T21:25:41.500Z,70.20
2022-12-11T21:28:08.342Z,70.30
2022-12-11T21:30:40.104Z,70.30
2022-12-11T21:33:07.286Z,70.30
2022-12-11T21:35:34.128Z,70.40
2022-12-11T21:38:01.076Z,70.30
2022-12-11T21:40:28.225Z,70.30
2022-12-11T21:42:55.482Z,70.40
2022-12-11T21:46:00.298Z,70.40
2022-12-11T21:48:10.956Z,70.40
2022-12-11T21:50:37.805Z,70.50
2022-12-11T21:53:04.796Z,70.40
2022-12-11T21:55:31.685Z,70.60
2022-12-11T21:57:58.567Z,70.70
2022-12-11T22:00:25.480Z,70.80
2022-12-11T22:02:52.341Z,70.90
2022-12-11T22:05:19.169Z,70.70
2022-12-11T22:07:46.088Z,71.00
2022-12-11T22:10:13.033Z,71.20
2022-12-11T22:12:39.947Z,71.20
2022-12-11T22:15:07.653Z,71.30
2022-12-11T22:17:36.279Z,71.10
2022-12-11T22:20:05.299Z,71.30
2022-12-11T22:22:32.171Z,71.40
2022-12-11T22:24:59.170Z,71.40
2022-12-11T22:27:26.131Z,71.60
2022-12-11T22:29:54.232Z,71.60
2022-12-11T22:32:20.997Z,71.60
2022-12-11T22:34:47.739Z,71.70
2022-12-11T22:37:14.586Z,71.70
2022-12-11T22:39:41.428Z,71.80
2022-12-11T22:42:08.271Z,71.90
2022-12-11T22:44:35.255Z,71.70
2022-12-11T22:47:02.017Z,71.70
2022-12-11T22:49:28.799Z,71.90
2022-12-11T22:51:57.325Z,72.00
2022-12-11T22:54:24.860Z,72.00
2022-12-11T22:56:51.698Z,71.90
2022-12-11T22:59:18.503Z,72.00
2022-12-11T23:01:45.441Z,72.10
2022-12-11T23:04:12.377Z,72.10
2022-12-11T23:06:39.203Z,72.10
2022-12-11T23:09:06.019Z,72.10
2022-12-11T23:11:36.718Z,72.20
2022-12-11T23:14:08.699Z,72.10
2022-12-11T23:16:35.651Z,72.10
2022-12-11T23:19:02.702Z,72.20
2022-12-11T23:21:29.862Z,72.20
2022-12-11T23:23:58.418Z,72.30
2022-12-11T23:26:27.297Z,72.30
2022-12-11T23:28:55.804Z,72.40
2022-12-11T23:31:23.925Z,72.50
2022-12-11T23:33:51.516Z,72.40
2022-12-11T23:36:18.847Z,72.30
2022-12-11T23:38:50.921Z,72.30
2022-12-11T23:41:22.013Z,72.40
2022-12-11T23:43:48.913Z,72.30
2022-12-11T23:46:21.580Z,72.40
2022-12-11T23:48:49.340Z,72.30
2022-12-11T23:51:18.225Z,72.40
2022-12-11T23:53:45.372Z,72.40
2022-12-11T23:56:19.344Z,72.50
2022-12-11T23:58:46.315Z,72.50
